Time;durP1;ratioP1;P1;durP2;ratioP2;P2;SDS_P1;SDS_P2;PMS_P1;PMS_P2;Temp;Humidity;BMP_temperature;BMP_pressure;BME280_temperature;BME280_humidity;BME280_pressure;Samples;Min_cycle;Max_cycle;Signal;HPM_P1;HPM_P2
2022/02/11 00:00:59;;;;;;;5.80;4.22;;;6.10;99.90;;;;;;5073519;28;20202;-76
2022/02/11 00:08:37;;;;;;;10.05;4.28;;;5.60;99.90;;;;;;5072818;28;20694;-76
2022/02/11 00:11:03;;;;;;;10.82;5.13;;;5.60;99.90;;;;;;5073021;28;20217;-77
2022/02/11 00:13:28;;;;;;;9.60;4.35;;;5.80;99.90;;;;;;5072930;28;20662;-76
2022/02/11 00:15:55;;;;;;;8.65;4.00;;;5.70;99.90;;;;;;5072978;28;20170;-76
2022/02/11 00:18:21;;;;;;;12.38;4.28;;;5.70;99.90;;;;;;5073022;28;20221;-77
2022/02/11 00:20:49;;;;;;;4.78;4.25;;;5.90;99.90;;;;;;5054912;28;20201;-76
2022/02/11 00:23:19;;;;;;;4.55;3.88;;;5.70;99.90;;;;;;5072519;28;20202;-76
2022/02/11 00:26:00;;;;;;;5.10;3.83;;;5.60;99.90;;;;;;5072426;28;20269;-78
2022/02/11 00:33:28;;;;;;;6.07;3.50;;;5.70;99.90;;;;;;5073002;28;20607;-76
2022/02/11 00:35:58;;;;;;;8.23;3.97;;;5.50;99.90;;;;;;5072904;28;20212;-76
2022/02/11 00:38:41;;;;;;;3.88;3.30;;;5.40;99.90;;;;;;5072144;28;20705;-76
2022/02/11 01:05:46;;;;;;;10.45;3.70;;;5.30;99.90;;;;;;5076733;28;20174;-89
2022/02/11 01:08:12;;;;;;;5.18;3.22;;;5.30;99.90;;;;;;5076399;28;20631;-76
2022/02/11 01:10:38;;;;;;;7.57;3.28;;;5.30;99.90;;;;;;5076108;28;20177;-76
2022/02/11 01:13:03;;;;;;;4.57;3.17;;;5.30;99.90;;;;;;5075771;28;20189;-76
2022/02/11 01:15:31;;;;;;;5.90;2.88;;;5.30;99.90;;;;;;5057833;28;20171;-75
2022/02/11 01:18:00;;;;;;;11.40;2.65;;;5.40;99.90;;;;;;5057943;28;20206;-76
2022/02/11 01:28:32;;;;;;;8.38;3.90;;;5.30;99.90;;;;;;5075532;28;20166;-78
2022/02/11 01:32:17;;;;;;;3.58;2.47;;;5.30;99.90;;;;;;5076707;28;20167;-76
2022/02/11 01:57:49;;;;;;;13.48;3.17;;;5.20;99.90;;;;;;5074898;28;20202;-76
2022/02/11 02:26:54;;;;;;;6.93;2.13;;;5.40;99.90;;;;;;5076375;28;20224;-75
2022/02/11 03:01:55;;;;;;;11.95;1.90;;;5.70;99.90;;;;;;5058181;28;20194;-75
2022/02/11 04:25:16;;;;;;;11.68;2.17;;;6.30;99.90;;;;;;5072779;28;20664;-76
2022/02/11 04:55:02;;;;;;;2.72;1.85;;;6.30;99.90;;;;;;5076547;28;20254;-77
2022/02/11 05:00:30;;;;;;;8.65;2.15;;;6.00;99.90;;;;;;5075774;28;20185;-77
2022/02/11 05:03:15;;;;;;;5.07;2.20;;;6.00;99.90;;;;;;5075917;28;20182;-76
2022/02/11 05:05:50;;;;;;;15.38;2.42;;;6.00;99.90;;;;;;5060997;28;20265;-77
2022/02/11 05:08:24;;;;;;;11.55;2.28;;;6.00;99.90;;;;;;5079035;28;20518;-76
2022/02/11 05:10:52;;;;;;;10.30;2.35;;;6.10;99.90;;;;;;5076884;28;20174;-76
2022/02/11 05:13:19;;;;;;;6.72;3.00;;;6.30;99.90;;;;;;5076700;28;20182;-76
2022/02/11 05:16:03;;;;;;;15.38;2.65;;;6.40;99.90;;;;;;5077185;28;20220;-77
2022/02/11 05:18:47;;;;;;;10.80;3.00;;;6.20;99.90;;;;;;5075967;28;20202;-76
2022/02/11 05:21:32;;;;;;;12.63;2.75;;;6.30;99.90;;;;;;5076928;28;20161;-78
2022/02/11 05:23:57;;;;;;;7.80;3.22;;;6.30;99.90;;;;;;5077078;28;20548;-76
2022/02/11 05:26:23;;;;;;;15.57;2.60;;;6.10;99.90;;;;;;5079587;28;20186;-76
2022/02/11 05:28:48;;;;;;;10.95;2.22;;;6.00;99.90;;;;;;5075921;28;20719;-76
2022/02/11 05:31:14;;;;;;;8.25;2.42;;;6.00;99.90;;;;;;5077019;28;20760;-77
2022/02/11 05:33:40;;;;;;;15.25;2.47;;;6.00;99.90;;;;;;5077629;28;20231;-78
2022/02/11 05:36:05;;;;;;;12.40;2.22;;;6.00;99.90;;;;;;5077326;28;20229;-76
2022/02/11 05:38:31;;;;;;;11.23;2.10;;;6.00;99.90;;;;;;5058536;28;20202;-77
2022/02/11 05:40:57;;;;;;;7.45;1.95;;;5.90;99.90;;;;;;5079422;28;20163;-78
2022/02/11 05:43:22;;;;;;;4.97;2.15;;;6.00;99.90;;;;;;5076863;28;20277;-76
2022/02/11 05:45:48;;;;;;;7.55;2.45;;;6.00;99.90;;;;;;5076491;28;20556;-87
2022/02/11 05:48:13;;;;;;;17.80;2.20;;;6.10;99.90;;;;;;5076791;28;20171;-76
2022/02/11 05:50:39;;;;;;;7.22;2.65;;;6.10;99.90;;;;;;5076438;28;20185;-76
2022/02/11 05:53:05;;;;;;;9.07;2.13;;;6.20;99.90;;;;;;5077156;28;20293;-76
2022/02/11 05:55:34;;;;;;;10.18;2.70;;;6.10;99.90;;;;;;5076940;28;20164;-77
2022/02/11 05:58:00;;;;;;;14.15;2.63;;;6.20;99.90;;;;;;5077727;28;20202;-84
2022/02/11 06:00:26;;;;;;;8.80;2.15;;;6.30;99.90;;;;;;5078809;28;20642;-83
2022/02/11 06:02:52;;;;;;;20.23;2.80;;;6.10;99.90;;;;;;5077938;28;20655;-80
2022/02/11 06:05:19;;;;;;;13.10;2.28;;;6.10;99.90;;;;;;5078119;28;20166;-76
2022/02/11 06:07:45;;;;;;;11.95;2.40;;;6.10;99.90;;;;;;5077062;28;20185;-77
2022/02/11 06:10:11;;;;;;;10.77;1.92;;;6.00;99.90;;;;;;5077782;28;20162;-78
2022/02/11 06:12:37;;;;;;;8.25;2.38;;;5.90;99.90;;;;;;5079358;28;20210;-78
2022/02/11 06:15:03;;;;;;;8.05;1.90;;;5.90;99.90;;;;;;5076939;28;20173;-76
2022/02/11 06:17:28;;;;;;;2.88;1.75;;;6.00;99.90;;;;;;5076606;28;20700;-76
2022/02/11 06:19:57;;;;;;;9.55;2.15;;;6.10;99.90;;;;;;5076938;28;20170;-77
2022/02/11 06:22:22;;;;;;;8.80;2.20;;;6.10;99.90;;;;;;5078594;28;20159;-76
2022/02/11 06:24:48;;;;;;;7.30;2.10;;;6.10;99.90;;;;;;5074705;28;20212;-76
2022/02/11 06:27:15;;;;;;;22.65;3.70;;;6.00;99.90;;;;;;5075354;28;20303;-76
2022/02/11 06:29:41;;;;;;;8.38;2.55;;;6.00;99.90;;;;;;5075530;28;20178;-77
2022/02/11 06:32:07;;;;;;;8.18;2.00;;;5.90;99.90;;;;;;5075086;28;20166;-76
2022/02/11 06:34:33;;;;;;;6.63;1.95;;;6.00;99.90;;;;;;5076929;28;20193;-76
2022/02/11 06:36:58;;;;;;;9.45;2.33;;;5.90;99.90;;;;;;5075499;28;20206;-76
2022/02/11 06:39:25;;;;;;;9.25;2.00;;;5.90;99.90;;;;;;5081485;28;20178;-78
2022/02/11 06:41:53;;;;;;;12.05;2.10;;;5.90;99.90;;;;;;5078619;28;20171;-75
2022/02/11 06:44:20;;;;;;;8.88;2.35;;;5.90;99.90;;;;;;5079000;28;20206;-77
2022/02/11 06:46:45;;;;;;;14.48;3.25;;;5.90;99.90;;;;;;5077471;28;20680;-76
2022/02/11 06:49:11;;;;;;;13.27;3.28;;;5.90;99.90;;;;;;5075782;28;20167;-76
2022/02/11 06:51:37;;;;;;;12.00;2.55;;;5.80;99.90;;;;;;5077029;28;20217;-81
2022/02/11 06:54:03;;;;;;;6.93;1.92;;;5.70;99.90;;;;;;5075769;28;20232;-76
2022/02/11 06:56:28;;;;;;;6.55;2.15;;;5.60;99.90;;;;;;5079082;28;20171;-76
2022/02/11 06:58:55;;;;;;;11.93;2.70;;;5.70;99.90;;;;;;5079807;28;20171;-76
2022/02/11 07:01:22;;;;;;;10.80;2.50;;;5.60;99.90;;;;;;5089285;28;20167;-76
2022/02/11 07:03:48;;;;;;;7.63;2.78;;;5.50;99.90;;;;;;5073843;28;20193;-77
2022/02/11 07:06:13;;;;;;;12.60;2.47;;;5.50;99.90;;;;;;5073864;28;20162;-76
2022/02/11 07:08:39;;;;;;;11.93;2.90;;;5.50;99.90;;;;;;5073944;28;20155;-77
2022/02/11 07:11:05;;;;;;;13.93;2.17;;;5.60;99.90;;;;;;5055942;28;20167;-76
2022/02/11 07:13:31;;;;;;;9.10;2.60;;;5.60;99.90;;;;;;5073397;28;20261;-76
2022/02/11 07:15:56;;;;;;;8.27;2.60;;;5.70;99.90;;;;;;5073287;28;20162;-76
2022/02/11 07:18:22;;;;;;;6.50;2.30;;;5.60;99.90;;;;;;5073267;28;20587;-76
2022/02/11 07:20:49;;;;;;;6.88;2.30;;;5.60;99.90;;;;;;5073202;28;20159;-75
2022/02/11 07:23:15;;;;;;;11.60;3.28;;;5.70;99.90;;;;;;5073486;28;20545;-75
2022/02/11 07:25:42;;;;;;;12.48;3.55;;;5.80;99.90;;;;;;5072789;28;20182;-75
2022/02/11 07:28:08;;;;;;;15.88;3.13;;;5.70;99.90;;;;;;5073182;28;20174;-75
2022/02/11 07:30:33;;;;;;;7.10;3.67;;;5.90;99.90;;;;;;5073735;28;20184;-76
2022/02/11 07:33:00;;;;;;;12.57;3.28;;;6.10;99.90;;;;;;5073609;28;20236;-76
2022/02/11 07:35:27;;;;;;;9.02;3.55;;;6.20;99.90;;;;;;5073210;28;20174;-86
2022/02/11 07:37:53;;;;;;;11.57;2.90;;;6.40;99.90;;;;;;5073365;28;20552;-83
2022/02/11 07:40:19;;;;;;;12.68;3.33;;;6.40;99.90;;;;;;5073345;28;20703;-76
2022/02/11 07:42:46;;;;;;;13.52;3.30;;;6.20;99.90;;;;;;5073196;28;20206;-77
2022/02/11 07:45:13;;;;;;;6.68;2.55;;;6.10;99.90;;;;;;5074361;28;20177;-78
2022/02/11 07:47:39;;;;;;;9.30;2.67;;;6.00;99.90;;;;;;5072943;28;20689;-77
2022/02/11 07:50:07;;;;;;;11.85;2.95;;;5.90;99.90;;;;;;5073165;28;20166;-89
2022/02/11 07:52:33;;;;;;;17.92;3.17;;;5.90;99.90;;;;;;5072923;28;20179;-78
2022/02/11 07:54:58;;;;;;;12.88;2.88;;;6.00;99.90;;;;;;5072770;28;20508;-80
2022/02/11 07:57:24;;;;;;;10.13;3.13;;;6.10;99.90;;;;;;5072754;28;20291;-77
2022/02/11 07:59:50;;;;;;;9.27;2.08;;;6.20;99.90;;;;;;5072659;28;20169;-78
2022/02/11 08:02:16;;;;;;;7.60;1.65;;;6.20;99.90;;;;;;5072460;28;20174;-77
2022/02/11 08:04:42;;;;;;;11.13;2.20;;;6.50;99.90;;;;;;5071944;28;20654;-77
2022/02/11 08:07:08;;;;;;;7.47;2.70;;;6.60;99.90;;;;;;5073988;28;20178;-77
2022/02/11 08:09:34;;;;;;;10.45;3.05;;;6.70;99.90;;;;;;5081919;28;20166;-76
2022/02/11 08:12:00;;;;;;;8.25;3.03;;;6.60;99.90;;;;;;5083502;28;20197;-76
2022/02/11 08:14:26;;;;;;;9.50;2.85;;;6.50;99.90;;;;;;5072489;28;20265;-78
2022/02/11 08:16:51;;;;;;;8.93;3.80;;;6.60;99.90;;;;;;5072607;28;20776;-77
2022/02/11 08:19:22;;;;;;;6.93;2.08;;;6.70;99.90;;;;;;5072824;28;20647;-88
2022/02/11 08:21:48;;;;;;;11.73;2.28;;;6.70;99.90;;;;;;5082582;28;20212;-89
2022/02/11 08:24:14;;;;;;;4.30;1.95;;;6.80;99.90;;;;;;5067346;28;20270;-89
2022/02/11 08:26:40;;;;;;;10.82;3.15;;;6.90;99.90;;;;;;5052339;28;20182;-78
2022/02/11 08:29:08;;;;;;;15.65;2.35;;;6.90;99.90;;;;;;5062676;28;20196;-79
2022/02/11 08:31:34;;;;;;;16.10;2.58;;;6.90;99.90;;;;;;5081130;28;20166;-76
2022/02/11 08:34:00;;;;;;;5.60;2.53;;;6.90;99.90;;;;;;5087015;28;20186;-77
2022/02/11 08:36:25;;;;;;;9.93;2.50;;;7.20;99.90;;;;;;5086043;28;20194;-76
2022/02/11 08:38:51;;;;;;;7.25;1.98;;;7.30;99.90;;;;;;5081226;28;20228;-89
2022/02/11 08:41:17;;;;;;;9.65;2.17;;;7.30;99.90;;;;;;5076956;28;20167;-88
2022/02/11 08:43:43;;;;;;;6.72;2.40;;;7.20;99.90;;;;;;5057121;28;20692;-86
2022/02/11 08:46:09;;;;;;;12.90;2.45;;;7.10;99.90;;;;;;5072388;28;20163;-78
2022/02/11 08:48:35;;;;;;;11.98;2.15;;;7.00;99.90;;;;;;5073873;28;20261;-81
2022/02/11 08:51:00;;;;;;;6.45;2.15;;;6.90;99.90;;;;;;5062724;28;20191;-87
2022/02/11 08:53:30;;;;;;;11.80;2.15;;;6.90;99.90;;;;;;5059572;28;20222;-78
2022/02/11 08:55:55;;;;;;;25.50;3.05;;;6.80;99.90;;;;;;5048284;28;20174;-77
2022/02/11 08:58:21;;;;;;;13.38;3.20;;;7.00;99.90;;;;;;5072600;28;20250;-87
2022/02/11 09:00:50;;;;;;;10.65;2.67;;;7.00;99.90;;;;;;5072157;28;20398;-81
2022/02/11 09:03:16;;;;;;;19.65;3.17;;;7.10;99.90;;;;;;5055572;28;20534;-90
2022/02/11 09:05:42;;;;;;;13.98;2.95;;;6.90;99.90;;;;;;5064351;28;20217;-88
2022/02/11 09:08:09;;;;;;;14.88;2.78;;;6.90;99.90;;;;;;5066463;28;20171;-86
2022/02/11 09:10:35;;;;;;;9.32;2.58;;;6.80;99.90;;;;;;5060406;28;20159;-85
2022/02/11 09:13:02;;;;;;;13.13;3.63;;;6.70;99.90;;;;;;5052325;28;20201;-81
2022/02/11 09:15:29;;;;;;;13.45;2.63;;;6.80;99.90;;;;;;5071396;28;20175;-89
2022/02/11 09:17:55;;;;;;;11.52;2.40;;;6.90;99.90;;;;;;5072524;28;20209;-86
2022/02/11 09:20:22;;;;;;;12.55;3.53;;;6.90;99.90;;;;;;5062516;28;20733;-78
2022/02/11 09:22:48;;;;;;;13.63;3.05;;;6.80;99.90;;;;;;5059046;28;20597;-79
2022/02/11 09:25:14;;;;;;;8.25;2.88;;;6.90;99.90;;;;;;5077763;28;20189;-78
2022/02/11 09:27:44;;;;;;;11.65;3.08;;;7.10;99.90;;;;;;5087876;28;20190;-83
2022/02/11 09:30:18;;;;;;;71.18;8.30;;;7.10;99.90;;;;;;5080895;28;20183;-79
2022/02/11 09:32:51;;;;;;;15.27;4.10;;;7.00;99.90;;;;;;5059845;28;20186;-82
2022/02/11 09:35:17;;;;;;;30.02;3.55;;;7.20;99.90;;;;;;5056308;28;20171;-78
2022/02/11 09:37:43;;;;;;;12.18;2.88;;;7.10;99.90;;;;;;5056309;28;20693;-78
2022/02/11 09:40:11;;;;;;;11.75;3.05;;;7.10;99.90;;;;;;5070811;28;20175;-90
2022/02/11 09:42:38;;;;;;;7.50;2.88;;;7.20;99.90;;;;;;5065559;28;20245;-91
2022/02/11 09:45:06;;;;;;;13.95;2.60;;;7.20;99.90;;;;;;5031924;28;20616;-80
2022/02/11 09:47:36;;;;;;;8.73;2.08;;;7.10;99.90;;;;;;5062705;28;20231;-77
2022/02/11 09:50:03;;;;;;;18.63;4.82;;;7.20;99.90;;;;;;5063410;28;20179;-81
2022/02/11 09:52:34;;;;;;;9.57;3.42;;;7.20;99.90;;;;;;5055040;28;20175;-81
2022/02/11 09:57:44;;;;;;;6.38;2.58;;;7.30;99.90;;;;;;5074345;28;20700;-78
2022/02/11 10:00:13;;;;;;;13.07;3.13;;;7.30;99.90;;;;;;5074142;28;20178;-77
2022/02/11 10:02:53;;;;;;;13.80;2.72;;;7.30;99.90;;;;;;5074102;28;20225;-77
2022/02/11 10:05:27;;;;;;;12.32;3.20;;;7.30;99.90;;;;;;5070423;28;20174;-77
2022/02/11 10:07:54;;;;;;;8.43;2.25;;;7.20;99.90;;;;;;5054436;28;20167;-79
2022/02/11 10:10:38;;;;;;;17.00;2.85;;;7.30;99.90;;;;;;5054155;28;20628;-78
2022/02/11 10:13:06;;;;;;;12.13;2.80;;;7.30;99.90;;;;;;5054619;28;20191;-77
2022/02/11 10:15:34;;;;;;;14.85;2.38;;;7.30;99.90;;;;;;5056782;28;20254;-89
2022/02/11 10:17:59;;;;;;;13.38;2.53;;;7.30;99.90;;;;;;5074610;28;20198;-77
2022/02/11 10:20:29;;;;;;;8.93;2.00;;;7.20;99.90;;;;;;5066633;28;20170;-84
2022/02/11 10:23:20;;;;;;;6.93;2.47;;;7.20;99.90;;;;;;5053328;28;20191;-77
2022/02/11 10:26:02;;;;;;;10.32;1.95;;;7.20;99.90;;;;;;5034940;28;20183;-77
2022/02/11 10:28:35;;;;;;;8.80;2.22;;;7.30;99.90;;;;;;5053786;28;20209;-78
2022/02/11 10:31:35;;;;;;;21.17;2.97;;;7.40;99.90;;;;;;5035856;28;20182;-77
2022/02/11 10:34:04;;;;;;;9.05;2.58;;;7.60;99.90;;;;;;5053288;28;20194;-78
2022/02/11 10:36:38;;;;;;;119.65;12.57;;;7.70;99.90;;;;;;5052571;28;20183;-77
2022/02/11 10:39:09;;;;;;;3.75;2.30;;;7.80;99.90;;;;;;5034659;28;20193;-78
2022/02/11 10:41:49;;;;;;;14.75;3.70;;;8.00;99.90;;;;;;5052783;28;20174;-77
2022/02/11 10:44:18;;;;;;;18.48;2.90;;;8.20;99.90;;;;;;5054365;28;20191;-77
2022/02/11 10:46:46;;;;;;;13.35;3.15;;;8.10;99.90;;;;;;5055192;28;20170;-78
2022/02/11 10:49:13;;;;;;;12.60;2.28;;;8.20;99.90;;;;;;5067486;28;20194;-78
2022/02/11 10:51:47;;;;;;;17.23;3.00;;;8.30;99.90;;;;;;5072515;28;20170;-77
2022/02/11 10:54:26;;;;;;;8.57;2.05;;;8.60;99.90;;;;;;5071677;28;20222;-76
2022/02/11 10:56:55;;;;;;;5.50;1.70;;;8.80;99.90;;;;;;5047487;28;20194;-77
2022/02/11 10:59:32;;;;;;;12.20;3.17;;;8.90;99.90;;;;;;5052877;28;20229;-75
2022/02/11 11:02:01;;;;;;;10.80;3.08;;;9.00;99.90;;;;;;5052916;28;20203;-75
2022/02/11 11:04:27;;;;;;;12.82;2.80;;;9.10;99.90;;;;;;5064094;28;20655;-75
2022/02/11 11:06:56;;;;;;;6.68;2.45;;;9.00;99.90;;;;;;5070091;28;20269;-75
2022/02/11 11:09:25;;;;;;;12.02;2.08;;;9.20;99.90;;;;;;5072767;28;20177;-75
2022/02/11 11:11:55;;;;;;;8.18;3.00;;;9.30;99.90;;;;;;5072837;28;20167;-75
2022/02/11 11:14:23;;;;;;;13.90;2.88;;;9.30;99.90;;;;;;5055946;28;20270;-76
2022/02/11 11:16:52;;;;;;;6.03;2.13;;;9.30;99.90;;;;;;5051927;28;20195;-74
2022/02/11 11:19:18;;;;;;;24.27;3.72;;;9.10;99.90;;;;;;5051493;28;20199;-74
2022/02/11 11:22:10;;;;;;;9.52;2.85;;;9.30;99.90;;;;;;5035154;28;20268;-75
2022/02/11 11:24:52;;;;;;;7.15;2.10;;;9.10;99.90;;;;;;5053829;28;20187;-75
2022/02/11 11:27:53;;;;;;;7.35;1.75;;;8.90;99.90;;;;;;5053211;28;20240;-77
2022/02/11 11:30:27;;;;;;;14.13;2.67;;;8.80;99.90;;;;;;5010692;28;20183;-75
2022/02/11 11:33:08;;;;;;;8.25;2.20;;;8.80;99.90;;;;;;5052926;28;20574;-78
2022/02/11 11:36:00;;;;;;;12.20;2.15;;;8.70;99.90;;;;;;5035172;28;20183;-86
2022/02/11 11:38:39;;;;;;;8.20;1.63;;;8.60;99.90;;;;;;5053649;28;20203;-83
2022/02/11 11:41:17;;;;;;;395.80;44.72;;;8.50;99.90;;;;;;5053187;28;20193;-77
2022/02/11 11:43:55;;;;;;;34.28;3.33;;;8.20;99.90;;;;;;5035171;28;20190;-76
2022/02/11 11:46:20;;;;;;;15.48;1.85;;;7.50;99.90;;;;;;5053129;28;20250;-77
2022/02/11 11:49:07;;;;;;;3.72;1.75;;;7.50;99.90;;;;;;5053808;28;20275;-76
2022/02/11 11:51:35;;;;;;;17.00;2.13;;;7.30;99.90;;;;;;5053562;28;20178;-77
2022/02/11 11:54:16;;;;;;;17.45;2.30;;;7.50;99.90;;;;;;5060426;28;20187;-77
2022/02/11 11:56:54;;;;;;;5.05;1.55;;;7.50;99.90;;;;;;5053231;28;20202;-82
2022/02/11 11:59:41;;;;;;;6.38;1.58;;;7.70;99.90;;;;;;5071303;28;20179;-82
2022/02/11 12:02:40;;;;;;;12.63;2.35;;;7.70;99.90;;;;;;5053774;28;20164;-77
2022/02/11 12:05:05;;;;;;;18.70;2.90;;;7.90;99.90;;;;;;5055878;28;20275;-76
2022/02/11 12:07:37;;;;;;;11.07;2.10;;;8.30;99.90;;;;;;5066536;28;20599;-81
2022/02/11 12:10:06;;;;;;;25.80;2.42;;;8.60;99.90;;;;;;5066368;28;20262;-78
2022/02/11 12:12:34;;;;;;;281.17;27.77;;;8.90;99.90;;;;;;5059860;28;20228;-77
2022/02/11 12:15:11;;;;;;;95.30;11.07;;;9.10;99.90;;;;;;5057505;28;20262;-77
2022/02/11 12:17:37;;;;;;;17.45;3.20;;;9.40;99.90;;;;;;5047993;28;20244;-77
2022/02/11 12:20:04;;;;;;;79.68;8.35;;;9.60;99.90;;;;;;5062371;28;20163;-77
2022/02/11 12:22:34;;;;;;;13.23;2.33;;;9.20;99.90;;;;;;5054298;28;20178;-76
2022/02/11 12:27:53;;;;;;;10.18;1.95;;;8.30;99.90;;;;;;5043522;28;20734;-80
2022/02/11 12:30:23;;;;;;;22.67;4.45;;;7.90;99.90;;;;;;5067373;28;20188;-85
2022/02/11 12:32:59;;;;;;;88.82;8.70;;;7.50;99.90;;;;;;5079772;28;20195;-89
2022/02/11 12:35:30;;;;;;;15.65;1.63;;;7.50;99.90;;;;;;5060792;28;20157;-88
2022/02/11 12:37:59;;;;;;;12.60;1.70;;;7.40;99.90;;;;;;5077974;28;20206;-84
2022/02/11 12:40:28;;;;;;;156.90;16.70;;;7.60;99.90;;;;;;5058077;28;20218;-86
2022/02/11 12:42:56;;;;;;;43.83;3.63;;;7.50;99.90;;;;;;5041952;28;20191;-78
2022/02/11 12:45:28;;;;;;;68.70;7.00;;;7.70;99.90;;;;;;5066593;28;20182;-82
2022/02/11 12:47:54;;;;;;;27.70;3.38;;;7.70;99.90;;;;;;5066560;28;20189;-77
2022/02/11 12:50:33;;;;;;;5.68;1.60;;;7.60;99.90;;;;;;5066155;28;20168;-77
2022/02/11 12:53:00;;;;;;;9.90;2.38;;;7.70;99.90;;;;;;5062995;28;20197;-77
2022/02/11 12:55:27;;;;;;;6.90;1.52;;;7.60;99.90;;;;;;5070517;28;20170;-78
2022/02/11 12:57:56;;;;;;;4.00;1.17;;;7.60;99.90;;;;;;5077134;28;20281;-78
2022/02/11 13:00:26;;;;;;;8.45;1.55;;;7.60;99.90;;;;;;5075629;28;20171;-78
2022/02/11 13:02:58;;;;;;;8.50;1.98;;;7.60;99.90;;;;;;5073469;28;20214;-87
2022/02/11 13:05:54;;;;;;;8.68;1.33;;;7.50;99.90;;;;;;5073374;28;20197;-82
2022/02/11 13:08:26;;;;;;;7.75;1.80;;;7.60;99.90;;;;;;5048203;28;20253;-87
2022/02/11 13:11:03;;;;;;;28.17;3.85;;;7.90;99.90;;;;;;5059031;28;20705;-78
2022/02/11 13:13:30;;;;;;;8.40;2.08;;;8.10;99.90;;;;;;5040222;28;20932;-78
2022/02/11 13:15:57;;;;;;;15.15;1.95;;;8.20;99.90;;;;;;5057172;28;20269;-79
2022/02/11 13:18:24;;;;;;;6.55;1.88;;;8.00;99.90;;;;;;5059005;28;20297;-78
2022/02/11 13:20:51;;;;;;;10.10;1.50;;;8.00;99.90;;;;;;5078934;28;20641;-79
2022/02/11 13:23:21;;;;;;;11.35;1.90;;;8.00;99.90;;;;;;5082803;28;20258;-86
2022/02/11 13:25:49;;;;;;;12.63;2.05;;;8.10;99.90;;;;;;5063945;28;20201;-85
2022/02/11 13:28:17;;;;;;;18.38;2.53;;;8.20;99.90;;;;;;5082200;28;20696;-78
2022/02/11 13:30:47;;;;;;;14.25;2.17;;;8.30;99.90;;;;;;5050382;28;20174;-78
2022/02/11 13:33:27;;;;;;;10.95;2.08;;;8.40;99.90;;;;;;5065739;28;20195;-84
2022/02/11 13:35:54;;;;;;;9.23;2.03;;;8.20;99.90;;;;;;5059376;28;20178;-80
2022/02/11 13:38:21;;;;;;;29.38;2.15;;;8.10;99.90;;;;;;5067389;28;20202;-78
2022/02/11 13:40:59;;;;;;;10.20;1.85;;;8.20;99.90;;;;;;5056333;28;20255;-86
2022/02/11 13:43:26;;;;;;;7.50;1.67;;;8.20;99.90;;;;;;5056375;28;20197;-85
2022/02/11 13:45:57;;;;;;;8.32;2.15;;;8.10;99.90;;;;;;5057945;28;20166;-85
2022/02/11 13:48:25;;;;;;;15.85;1.98;;;8.10;99.90;;;;;;5065624;28;20174;-82
2022/02/11 13:51:05;;;;;;;11.85;2.00;;;8.10;99.90;;;;;;5075249;28;20285;-78
2022/02/11 13:53:53;;;;;;;9.95;2.28;;;8.10;99.90;;;;;;5058062;28;20195;-83
2022/02/11 13:56:35;;;;;;;6.07;1.40;;;8.30;99.90;;;;;;5057154;28;20615;-89
2022/02/11 13:59:11;;;;;;;14.80;1.50;;;8.30;99.90;;;;;;5062283;28;20202;-89
2022/02/11 14:01:42;;;;;;;12.15;2.05;;;8.40;99.90;;;;;;5076560;28;20192;-86
2022/02/11 14:04:19;;;;;;;4.95;1.45;;;8.50;99.90;;;;;;5073333;28;20198;-87
2022/02/11 14:06:53;;;;;;;9.05;1.65;;;8.60;99.90;;;;;;5056325;28;20224;-88
2022/02/11 14:09:38;;;;;;;6.97;1.20;;;8.80;99.90;;;;;;5055229;28;20243;-80
2022/02/11 14:12:06;;;;;;;4.30;1.38;;;8.90;99.90;;;;;;5050422;28;20276;-80
2022/02/11 14:14:33;;;;;;;13.95;1.67;;;8.90;99.90;;;;;;5068985;28;20194;-84
2022/02/11 14:17:00;;;;;;;25.45;2.40;;;8.80;99.90;;;;;;5059776;28;20673;-81
2022/02/11 14:19:26;;;;;;;7.20;1.45;;;8.80;99.90;;;;;;5071557;28;20181;-82
2022/02/11 14:21:57;;;;;;;13.90;1.92;;;9.00;99.90;;;;;;5070990;28;20250;-81
2022/02/11 14:24:24;;;;;;;11.98;1.67;;;9.20;99.90;;;;;;5056552;28;20213;-82
2022/02/11 14:26:50;;;;;;;9.50;1.58;;;9.10;99.90;;;;;;5058602;28;20631;-82
2022/02/11 14:29:16;;;;;;;14.02;1.73;;;8.80;99.90;;;;;;5086896;28;20175;-79
2022/02/11 14:31:43;;;;;;;15.38;1.90;;;8.80;99.90;;;;;;5077288;28;20174;-78
2022/02/11 14:34:10;;;;;;;12.15;2.03;;;9.00;99.90;;;;;;5074465;28;20551;-86
2022/02/11 14:36:38;;;;;;;11.25;2.17;;;9.10;99.90;;;;;;5062434;28;20182;-80
2022/02/11 14:39:04;;;;;;;14.13;2.22;;;9.30;99.90;;;;;;5056750;28;20223;-81
2022/02/11 14:41:48;;;;;;;9.88;1.77;;;9.30;99.90;;;;;;5036372;28;20210;-80
2022/02/11 14:44:16;;;;;;;17.95;2.42;;;9.20;99.90;;;;;;5056194;28;20214;-83
2022/02/11 14:46:41;;;;;;;14.88;1.52;;;9.20;99.90;;;;;;5054495;28;20171;-79
2022/02/11 14:49:07;;;;;;;4.45;1.98;;;9.00;99.90;;;;;;5050219;28;20175;-80
2022/02/11 14:51:36;;;;;;;7.30;2.08;;;8.80;99.90;;;;;;5074255;28;20178;-77
2022/02/11 14:54:11;;;;;;;10.65;1.52;;;8.90;99.90;;;;;;5062619;28;20186;-78
2022/02/11 14:56:38;;;;;;;19.98;1.67;;;9.00;99.90;;;;;;5068614;28;20178;-85
2022/02/11 14:59:04;;;;;;;13.13;2.15;;;9.00;99.90;;;;;;5054176;28;20289;-86
2022/02/11 15:01:30;;;;;;;12.23;1.75;;;9.10;99.90;;;;;;5053730;28;20571;-81
2022/02/11 15:03:57;;;;;;;27.55;2.58;;;9.10;99.90;;;;;;5069870;28;20194;-83
2022/02/11 15:06:23;;;;;;;11.40;1.92;;;9.00;99.90;;;;;;5063038;28;20588;-80
2022/02/11 15:08:48;;;;;;;7.72;1.80;;;8.80;99.90;;;;;;5054575;28;20229;-83
2022/02/11 15:11:14;;;;;;;20.75;2.63;;;8.70;99.90;;;;;;5054474;28;20566;-81
2022/02/11 15:13:40;;;;;;;12.80;2.35;;;8.90;99.90;;;;;;5060101;28;20209;-77
2022/02/11 15:16:06;;;;;;;27.90;3.03;;;9.00;99.90;;;;;;5070976;28;20307;-81
2022/02/11 15:18:32;;;;;;;9.93;2.45;;;8.90;99.90;;;;;;5060365;28;20203;-76
2022/02/11 15:21:05;;;;;;;12.05;1.50;;;8.90;99.90;;;;;;5053168;28;20861;-78
2022/02/11 15:23:37;;;;;;;7.88;2.38;;;8.60;99.90;;;;;;5052877;28;20505;-85
2022/02/11 15:26:05;;;;;;;9.20;1.80;;;8.10;99.90;;;;;;5059785;28;20207;-76
2022/02/11 15:28:33;;;;;;;11.13;1.67;;;8.00;99.90;;;;;;5051956;28;20190;-79
2022/02/11 15:30:59;;;;;;;17.60;1.95;;;7.70;99.90;;;;;;5049955;28;20313;-77
2022/02/11 15:33:25;;;;;;;6.53;1.73;;;7.70;99.90;;;;;;5059647;28;20205;-85
2022/02/11 15:35:50;;;;;;;14.43;2.17;;;7.60;99.90;;;;;;5066222;28;20167;-77
2022/02/11 15:38:16;;;;;;;8.68;1.35;;;7.60;99.90;;;;;;5060761;28;20256;-77
2022/02/11 15:40:42;;;;;;;6.82;1.50;;;7.70;99.90;;;;;;5056639;28;20304;-77
2022/02/11 15:43:08;;;;;;;27.15;2.47;;;7.80;99.90;;;;;;5053177;28;20273;-87
2022/02/11 15:45:33;;;;;;;16.48;2.95;;;7.80;99.90;;;;;;5054084;28;20194;-82
2022/02/11 15:47:59;;;;;;;21.02;2.38;;;8.00;99.90;;;;;;5054649;28;20240;-77
2022/02/11 15:50:25;;;;;;;17.17;2.42;;;8.20;99.90;;;;;;5052724;28;20175;-84
2022/02/11 15:52:52;;;;;;;14.60;2.25;;;8.10;99.90;;;;;;5059815;28;20210;-79
2022/02/11 15:55:19;;;;;;;10.93;1.90;;;8.00;99.90;;;;;;5072683;28;20269;-77
2022/02/11 15:57:45;;;;;;;23.75;1.90;;;8.20;99.90;;;;;;5057115;28;20295;-77
2022/02/11 16:00:11;;;;;;;16.30;2.85;;;8.40;99.90;;;;;;5055589;28;20207;-83
2022/02/11 16:02:37;;;;;;;8.40;2.88;;;8.30;99.90;;;;;;5053975;28;20191;-84
2022/02/11 16:05:05;;;;;;;31.92;2.97;;;8.20;99.90;;;;;;5051396;28;20263;-76
2022/02/11 16:07:31;;;;;;;6.50;1.58;;;8.10;99.90;;;;;;5053545;28;20210;-77
2022/02/11 16:09:57;;;;;;;16.73;2.20;;;7.90;99.90;;;;;;5052599;28;20163;-77
2022/02/11 16:12:22;;;;;;;6.45;1.38;;;7.60;99.90;;;;;;5053314;28;20178;-77
2022/02/11 16:14:48;;;;;;;16.55;1.83;;;7.60;99.90;;;;;;5053491;28;20254;-77
2022/02/11 16:17:14;;;;;;;8.77;1.45;;;7.50;99.90;;;;;;5052760;28;20195;-78
2022/02/11 16:19:39;;;;;;;3.60;1.77;;;7.70;99.90;;;;;;5052896;28;20186;-75
2022/02/11 16:22:05;;;;;;;5.85;1.58;;;7.70;99.90;;;;;;5052518;28;20175;-78
2022/02/11 16:24:32;;;;;;;12.48;1.77;;;7.60;99.90;;;;;;5053058;28;20201;-77
2022/02/11 16:26:58;;;;;;;5.05;1.65;;;7.50;99.90;;;;;;5052445;28;20707;-78
2022/02/11 16:29:25;;;;;;;8.23;2.17;;;7.60;99.90;;;;;;5052362;28;20214;-76
2022/02/11 16:31:52;;;;;;;33.90;3.50;;;7.40;99.90;;;;;;5051895;28;20183;-76
2022/02/11 16:34:18;;;;;;;23.70;3.00;;;7.40;99.90;;;;;;5056141;28;20191;-76
2022/02/11 16:36:44;;;;;;;21.65;2.60;;;7.60;99.90;;;;;;5056844;28;20590;-76
2022/02/11 16:39:12;;;;;;;18.65;2.60;;;7.60;99.90;;;;;;5056614;28;20281;-77
2022/02/11 16:41:38;;;;;;;21.95;2.08;;;7.60;99.90;;;;;;5056356;28;20685;-79
2022/02/11 16:44:05;;;;;;;8.38;2.25;;;7.80;99.90;;;;;;5056740;28;20191;-79
2022/02/11 16:46:33;;;;;;;19.27;2.83;;;7.70;99.90;;;;;;5057023;28;20539;-78
2022/02/11 16:48:58;;;;;;;11.30;1.60;;;7.80;99.90;;;;;;5056985;28;20175;-78
2022/02/11 16:51:24;;;;;;;18.92;3.95;;;7.90;99.90;;;;;;5057074;28;20174;-79
2022/02/11 16:53:49;;;;;;;14.55;3.47;;;8.10;99.90;;;;;;5056940;28;20244;-78
2022/02/11 16:56:15;;;;;;;19.52;4.28;;;8.10;99.90;;;;;;5057087;28;20170;-80
2022/02/11 16:58:41;;;;;;;11.50;2.78;;;8.10;99.90;;;;;;5064302;28;20211;-79
2022/02/11 17:01:06;;;;;;;12.00;3.20;;;8.10;99.90;;;;;;5070178;28;20163;-78
2022/02/11 17:03:32;;;;;;;14.50;3.92;;;8.10;99.90;;;;;;5080563;28;20309;-79